Time;durP1;ratioP1;P1;durP2;ratioP2;P2;SDS_P1;SDS_P2;PMS_P1;PMS_P2;Temp;Humidity;BMP_temperature;BMP_pressure;BME280_temperature;BME280_humidity;BME280_pressure;Samples;Min_cycle;Max_cycle;Signal;HPM_P1;HPM_P2
2024/01/28 00:01:54;;;;;;;31.23;14.60;;;;;;;-1.34;100.00;99005.44;4998803;28;20470;-80
2024/01/28 00:04:20;;;;;;;30.50;15.07;;;;;;;-1.37;100.00;99001.34;5001219;28;20410;-82
2024/01/28 00:06:46;;;;;;;37.88;17.75;;;;;;;-1.38;100.00;98993.69;5001353;28;20411;-80
2024/01/28 00:09:14;;;;;;;45.83;18.90;;;;;;;-1.41;100.00;99002.56;4999178;28;20437;-82
2024/01/28 00:11:42;;;;;;;43.72;19.02;;;;;;;-1.41;100.00;98993.94;4998370;28;20776;-82
2024/01/28 00:14:09;;;;;;;42.10;17.90;;;;;;;-1.42;100.00;98989.69;4998451;28;20425;-81
2024/01/28 00:16:35;;;;;;;34.58;17.30;;;;;;;-1.41;100.00;98984.38;4998611;28;20910;-82
2024/01/28 00:19:01;;;;;;;33.60;17.02;;;;;;;-1.43;100.00;98977.69;4998544;28;20398;-81
2024/01/28 00:21:28;;;;;;;30.40;15.88;;;;;;;-1.45;100.00;98971.81;4999654;28;20425;-81
2024/01/28 00:23:55;;;;;;;37.03;16.67;;;;;;;-1.47;100.00;98974.53;4998991;28;20403;-82
2024/01/28 00:26:23;;;;;;;31.70;15.45;;;;;;;-1.49;100.00;98986.00;4999028;28;20463;-81
2024/01/28 00:28:49;;;;;;;31.58;15.40;;;;;;;-1.54;100.00;98983.00;4999573;28;20430;-82
2024/01/28 00:31:17;;;;;;;32.78;16.15;;;;;;;-1.57;100.00;98982.31;4998694;28;21291;-81
2024/01/28 00:33:43;;;;;;;39.33;17.88;;;;;;;-1.60;100.00;98984.38;4999282;28;20403;-81
2024/01/28 00:36:15;;;;;;;36.72;15.25;;;;;;;-1.68;100.00;98973.84;4998583;28;20418;-82
2024/01/28 00:38:41;;;;;;;34.50;16.00;;;;;;;-1.71;100.00;98977.53;4998461;28;20429;-81
2024/01/28 00:41:07;;;;;;;39.70;18.17;;;;;;;-1.75;100.00;98976.16;4998524;28;20987;-82
2024/01/28 00:43:35;;;;;;;36.40;17.02;;;;;;;-1.79;100.00;98967.00;4998176;28;20421;-81
2024/01/28 00:46:01;;;;;;;38.08;17.23;;;;;;;-1.83;100.00;98965.63;4998028;28;20867;-81
2024/01/28 00:48:27;;;;;;;33.00;16.50;;;;;;;-1.86;100.00;98965.06;4998983;28;20410;-81
2024/01/28 00:50:53;;;;;;;39.50;17.10;;;;;;;-1.88;100.00;98959.22;4997884;28;20673;-82
2024/01/28 00:53:19;;;;;;;38.65;18.83;;;;;;;-1.91;100.00;98957.69;4997541;28;20449;-81
2024/01/28 00:55:46;;;;;;;41.38;17.40;;;;;;;-1.95;100.00;98953.69;4998551;28;20426;-81
2024/01/28 00:58:12;;;;;;;45.37;18.73;;;;;;;-1.97;100.00;98950.44;5000911;28;20458;-81
2024/01/28 01:00:40;;;;;;;37.65;18.58;;;;;;;-1.98;100.00;98947.03;5006526;28;20476;-80
2024/01/28 01:03:06;;;;;;;44.92;20.02;;;;;;;-1.99;100.00;98952.34;5006943;28;20395;-81
2024/01/28 01:05:34;;;;;;;40.63;17.58;;;;;;;-2.01;100.00;98949.88;4999045;28;20414;-81
2024/01/28 01:08:00;;;;;;;46.25;19.38;;;;;;;-2.01;100.00;98942.09;4997973;28;20433;-82
2024/01/28 01:10:26;;;;;;;43.53;18.47;;;;;;;-2.01;100.00;98938.66;5003087;28;20406;-80
2024/01/28 01:12:53;;;;;;;38.85;17.45;;;;;;;-2.04;100.00;98938.97;4996698;28;20453;-81
2024/01/28 01:15:19;;;;;;;34.55;16.38;;;;;;;-2.04;100.00;98937.19;4996712;28;20422;-81
2024/01/28 01:17:49;;;;;;;37.30;16.15;;;;;;;-2.07;100.00;98932.25;4997385;28;20485;-80
2024/01/28 01:20:17;;;;;;;32.83;15.10;;;;;;;-2.08;100.00;98927.19;4997538;28;20465;-80
2024/01/28 01:22:44;;;;;;;34.90;16.63;;;;;;;-2.09;100.00;98917.75;4997281;28;20398;-81
2024/01/28 01:25:11;;;;;;;35.28;16.23;;;;;;;-2.11;100.00;98917.09;4996895;28;20403;-82
2024/01/28 01:27:37;;;;;;;34.37;16.37;;;;;;;-2.13;100.00;98916.41;4996736;28;20395;-80
2024/01/28 01:30:04;;;;;;;40.42;16.60;;;;;;;-2.15;100.00;98916.53;4997275;28;20434;-81
2024/01/28 01:32:30;;;;;;;35.83;14.93;;;;;;;-2.16;100.00;98921.84;4997231;28;20451;-81
2024/01/28 01:34:58;;;;;;;41.92;17.27;;;;;;;-2.19;100.00;98924.72;4997443;28;20429;-82
2024/01/28 01:37:24;;;;;;;33.58;15.07;;;;;;;-2.21;100.00;98916.25;4997397;28;20453;-82
2024/01/28 01:39:50;;;;;;;33.53;15.00;;;;;;;-2.22;100.00;98918.00;4996990;28;20465;-81
2024/01/28 01:42:16;;;;;;;32.33;14.25;;;;;;;-2.23;100.00;98918.97;4997153;28;20406;-81
2024/01/28 01:44:42;;;;;;;29.92;13.82;;;;;;;-2.24;100.00;98929.47;4996977;28;20402;-82
2024/01/28 01:47:08;;;;;;;32.42;15.20;;;;;;;-2.27;100.00;98915.00;4996714;28;20753;-82
2024/01/28 01:49:35;;;;;;;34.65;15.10;;;;;;;-2.28;100.00;98910.78;4997310;28;20402;-81
2024/01/28 01:52:04;;;;;;;32.85;14.18;;;;;;;-2.30;100.00;98902.28;4997618;28;20405;-81
2024/01/28 01:54:30;;;;;;;28.38;14.55;;;;;;;-2.31;100.00;98907.59;4996590;28;20562;-82
2024/01/28 01:56:56;;;;;;;30.13;15.00;;;;;;;-2.31;100.00;98905.00;4997213;28;20406;-81
2024/01/28 01:59:24;;;;;;;41.17;18.23;;;;;;;-2.31;100.00;98902.41;4997481;28;20406;-81
2024/01/28 02:01:50;;;;;;;34.72;15.95;;;;;;;-2.35;100.00;98902.72;4998475;28;20399;-80
2024/01/28 02:04:16;;;;;;;35.33;16.02;;;;;;;-2.35;100.00;98897.53;5005285;28;20487;-80
2024/01/28 02:06:42;;;;;;;35.30;16.33;;;;;;;-2.35;100.00;98904.47;5005112;28;20410;-79
2024/01/28 02:09:10;;;;;;;36.63;15.80;;;;;;;-2.36;100.00;98903.66;5004490;28;20404;-81
2024/01/28 02:11:36;;;;;;;42.00;18.10;;;;;;;-2.33;100.00;98909.53;5005071;28;20422;-81
2024/01/28 02:14:02;;;;;;;36.03;16.17;;;;;;;-2.27;100.00;98906.41;5004090;28;20408;-81
2024/01/28 02:16:29;;;;;;;36.10;16.38;;;;;;;-2.21;100.00;98905.88;5003797;28;20489;-81
2024/01/28 02:18:55;;;;;;;38.42;17.35;;;;;;;-2.19;100.00;98912.56;5003467;28;20403;-81
2024/01/28 02:21:21;;;;;;;40.92;18.45;;;;;;;-2.20;100.00;98913.53;5007305;28;20433;-80
2024/01/28 02:23:48;;;;;;;38.37;17.83;;;;;;;-2.22;100.00;98912.00;5003846;28;20402;-81
2024/01/28 02:26:15;;;;;;;38.87;17.93;;;;;;;-2.24;100.00;98908.72;5000211;28;20508;-81
2024/01/28 02:28:41;;;;;;;38.07;16.77;;;;;;;-2.26;100.00;98908.88;4999288;28;20398;-82
2024/01/28 02:31:07;;;;;;;33.88;15.25;;;;;;;-2.28;100.00;98902.16;4998963;28;20406;-81
2024/01/28 02:33:33;;;;;;;30.13;14.75;;;;;;;-2.29;100.00;98887.56;4999026;28;20398;-81
2024/01/28 02:36:00;;;;;;;29.85;14.45;;;;;;;-2.30;100.00;98886.75;4998198;28;20934;-80
2024/01/28 02:38:26;;;;;;;26.13;13.10;;;;;;;-2.33;100.00;98884.41;4999197;28;20493;-81
2024/01/28 02:40:55;;;;;;;27.73;13.13;;;;;;;-2.33;100.00;98888.78;4998578;28;20898;-79
2024/01/28 02:43:21;;;;;;;26.95;12.60;;;;;;;-2.36;100.00;98880.31;4998014;28;20449;-80
2024/01/28 02:45:47;;;;;;;21.77;12.10;;;;;;;-2.36;100.00;98877.72;4998804;28;20449;-81
2024/01/28 02:48:13;;;;;;;23.38;11.88;;;;;;;-2.37;100.00;98873.47;4998437;28;20414;-81
2024/01/28 02:50:39;;;;;;;25.73;12.90;;;;;;;-2.37;100.00;98872.66;4998962;28;20422;-81
2024/01/28 02:53:05;;;;;;;25.90;12.40;;;;;;;-2.36;100.00;98864.75;4998552;28;20406;-81
2024/01/28 02:55:31;;;;;;;27.65;13.75;;;;;;;-2.22;100.00;98866.16;4998364;28;20429;-82
2024/01/28 02:57:59;;;;;;;22.95;12.13;;;;;;;-2.16;100.00;98855.22;4998468;28;20406;-81
2024/01/28 03:00:26;;;;;;;22.45;11.48;;;;;;;-2.15;100.00;98859.47;4998647;28;20430;-80
2024/01/28 03:02:52;;;;;;;22.80;12.05;;;;;;;-2.21;100.00;98856.59;4998668;28;20414;-80
2024/01/28 03:05:19;;;;;;;23.40;11.50;;;;;;;-2.27;100.00;98864.91;4998776;28;20465;-81
2024/01/28 03:07:45;;;;;;;20.15;11.45;;;;;;;-2.33;100.00;98869.66;4999204;28;20410;-81
2024/01/28 03:10:11;;;;;;;22.48;11.65;;;;;;;-2.38;100.00;98866.66;4998684;28;20395;-80
2024/01/28 03:12:37;;;;;;;33.90;15.77;;;;;;;-2.40;100.00;98870.31;4998247;28;20414;-81
2024/01/28 03:15:06;;;;;;;31.27;15.52;;;;;;;-2.44;100.00;98871.56;4999263;28;20422;-81
2024/01/28 03:17:32;;;;;;;26.38;14.25;;;;;;;-2.45;100.00;98872.50;5000324;28;20399;-81
2024/01/28 03:19:58;;;;;;;34.45;16.90;;;;;;;-2.46;100.00;98869.09;4999942;28;20398;-80
2024/01/28 03:22:24;;;;;;;33.47;17.15;;;;;;;-2.45;100.00;98870.72;5000922;28;20469;-81
2024/01/28 03:24:51;;;;;;;34.70;16.80;;;;;;;-2.44;100.00;98868.97;5000510;28;20402;-81
2024/01/28 03:27:17;;;;;;;31.25;17.67;;;;;;;-2.44;100.00;98868.97;5000246;28;20814;-81
2024/01/28 03:29:43;;;;;;;30.65;16.38;;;;;;;-2.47;100.00;98864.84;5000290;28;20399;-80
2024/01/28 03:32:11;;;;;;;32.45;16.60;;;;;;;-2.48;100.00;98870.97;4998442;28;20410;-81
2024/01/28 03:34:37;;;;;;;27.77;15.70;;;;;;;-2.48;100.00;98872.78;4999014;28;20465;-80
2024/01/28 03:37:03;;;;;;;32.10;16.65;;;;;;;-2.49;100.00;98866.78;5000323;28;20406;-80
2024/01/28 03:39:29;;;;;;;37.88;18.20;;;;;;;-2.50;100.00;98869.50;4999828;28;20750;-81
2024/01/28 03:41:55;;;;;;;29.23;16.97;;;;;;;-2.50;100.00;98856.53;4999752;28;20410;-81
2024/01/28 03:44:23;;;;;;;29.25;16.48;;;;;;;-2.50;100.00;98866.91;5001006;28;20410;-80
2024/01/28 03:46:50;;;;;;;32.92;16.17;;;;;;;-2.50;100.00;98866.91;5004308;28;20410;-81
2024/01/28 03:49:17;;;;;;;34.47;17.30;;;;;;;-2.50;100.00;98867.72;5005783;28;20406;-81
2024/01/28 03:51:43;;;;;;;34.92;17.25;;;;;;;-2.51;100.00;98865.25;5003708;28;20457;-81
2024/01/28 03:54:10;;;;;;;31.90;16.10;;;;;;;-2.52;100.00;98867.03;4998716;28;20402;-80
2024/01/28 03:56:37;;;;;;;28.33;15.93;;;;;;;-2.52;100.00;98861.03;4998409;28;20446;-79
2024/01/28 03:59:03;;;;;;;28.48;15.98;;;;;;;-2.52;100.00;98854.06;4998907;28;20409;-81
2024/01/28 04:01:31;;;;;;;31.83;16.70;;;;;;;-2.54;100.00;98863.75;4998161;28;20401;-80
2024/01/28 04:03:57;;;;;;;32.78;18.10;;;;;;;-2.52;100.00;98863.63;4997844;28;20417;-80
2024/01/28 04:06:25;;;;;;;30.27;17.45;;;;;;;-2.53;100.00;98857.59;4998766;28;20430;-81
2024/01/28 04:08:52;;;;;;;31.67;17.42;;;;;;;-2.52;100.00;98854.06;4999021;28;20402;-80
2024/01/28 04:11:18;;;;;;;25.63;15.93;;;;;;;-2.52;100.00;98855.84;4998593;28;20399;-81
2024/01/28 04:13:44;;;;;;;25.85;15.45;;;;;;;-2.54;100.00;98849.97;4998751;28;20887;-81
2024/01/28 04:16:10;;;;;;;24.17;15.45;;;;;;;-2.54;100.00;98847.38;4998969;28;20414;-81
2024/01/28 04:18:36;;;;;;;25.15;14.77;;;;;;;-2.54;100.00;98843.00;4999714;28;20497;-81
2024/01/28 04:21:03;;;;;;;27.88;15.23;;;;;;;-2.55;100.00;98846.53;5000081;28;20457;-81
2024/01/28 04:23:30;;;;;;;31.83;16.48;;;;;;;-2.56;100.00;98844.13;5002083;28;20405;-79
2024/01/28 04:25:56;;;;;;;29.58;16.95;;;;;;;-2.57;100.00;98845.06;5008887;28;20402;-79
2024/01/28 04:28:25;;;;;;;27.15;15.63;;;;;;;-2.58;100.00;98846.00;5005901;28;20410;-79
2024/01/28 04:30:51;;;;;;;25.77;14.73;;;;;;;-2.60;100.00;98843.53;4997970;28;20903;-80
2024/01/28 04:33:17;;;;;;;22.40;13.77;;;;;;;-2.61;100.00;98849.66;4997177;28;20489;-81
2024/01/28 04:35:44;;;;;;;25.20;13.38;;;;;;;-2.63;100.00;98845.59;4998348;28;20457;-82
2024/01/28 04:38:10;;;;;;;23.50;13.90;;;;;;;-2.66;100.00;98856.22;4999527;28;20815;-81
2024/01/28 04:40:37;;;;;;;22.58;13.82;;;;;;;-2.69;100.00;98849.50;4999215;28;20390;-83
2024/01/28 04:43:04;;;;;;;23.02;14.32;;;;;;;-2.68;100.00;98852.91;4998721;28;20823;-83
2024/01/28 04:45:30;;;;;;;23.25;14.18;;;;;;;-2.69;100.00;98853.88;4997578;28;20410;-82
2024/01/28 04:47:56;;;;;;;24.13;13.80;;;;;;;-2.71;100.00;98848.84;4998378;28;20409;-82
2024/01/28 04:50:22;;;;;;;23.08;13.38;;;;;;;-2.73;100.00;98855.91;4999150;28;20403;-82
2024/01/28 04:52:48;;;;;;;20.80;13.35;;;;;;;-2.74;100.00;98846.50;4998312;28;20399;-84
2024/01/28 04:55:15;;;;;;;21.73;12.80;;;;;;;-2.74;100.00;98852.50;4997185;28;20428;-79
2024/01/28 04:57:42;;;;;;;19.30;12.40;;;;;;;-2.75;100.00;98863.00;4998963;28;20410;-82
2024/01/28 05:00:13;;;;;;;20.00;12.20;;;;;;;-2.76;100.00;98859.59;4998321;28;20403;-81
2024/01/28 05:02:39;;;;;;;20.83;12.65;;;;;;;-2.78;100.00;98858.06;5006225;28;20686;-80
2024/01/28 05:05:06;;;;;;;23.20;13.57;;;;;;;-2.78;100.00;98858.06;4998434;28;20418;-82
2024/01/28 05:07:32;;;;;;;20.70;12.80;;;;;;;-2.82;100.00;98859.28;4998418;28;20421;-80
2024/01/28 05:09:58;;;;;;;18.10;11.30;;;;;;;-2.83;100.00;98861.06;4998279;28;20813;-81
2024/01/28 05:12:25;;;;;;;19.90;11.88;;;;;;;-2.85;100.00;98856.94;4998952;28;20449;-81
2024/01/28 05:14:52;;;;;;;19.00;11.32;;;;;;;-2.86;100.00;98863.09;4998684;28;20425;-81
2024/01/28 05:17:19;;;;;;;19.55;11.55;;;;;;;-2.87;100.00;98877.81;4998098;28;20410;-78
2024/01/28 05:19:45;;;;;;;21.67;12.60;;;;;;;-2.86;100.00;98866.53;4999924;28;20402;-79
2024/01/28 05:22:11;;;;;;;22.50;12.43;;;;;;;-2.84;100.00;98858.59;4998858;28;21121;-79
2024/01/28 05:24:38;;;;;;;21.08;11.27;;;;;;;-2.83;100.00;98861.06;4997228;28;20926;-78
2024/01/28 05:27:04;;;;;;;20.42;11.38;;;;;;;-2.83;100.00;98860.22;4998652;28;20490;-78
2024/01/28 05:29:30;;;;;;;17.55;10.73;;;;;;;-2.85;100.00;98855.19;4998322;28;20398;-78
2024/01/28 05:31:58;;;;;;;16.05;9.88;;;;;;;-2.87;100.00;98857.09;4997119;28;20533;-79
2024/01/28 05:34:24;;;;;;;18.42;10.32;;;;;;;-2.89;100.00;98856.41;4997961;28;20433;-78
2024/01/28 05:36:50;;;;;;;17.83;10.50;;;;;;;-2.89;100.00;98861.59;4998053;28;20407;-78
2024/01/28 05:39:17;;;;;;;19.93;10.57;;;;;;;-2.90;100.00;98853.94;4997742;28;20417;-78
2024/01/28 05:41:43;;;;;;;16.63;10.48;;;;;;;-2.90;100.00;98856.53;4998367;28;20429;-78
2024/01/28 05:44:09;;;;;;;18.60;11.10;;;;;;;-2.91;100.00;98852.28;4997920;28;20422;-79
2024/01/28 05:46:36;;;;;;;18.40;10.70;;;;;;;-2.91;100.00;98858.28;4995456;28;20410;-79
2024/01/28 05:49:03;;;;;;;19.15;11.20;;;;;;;-2.89;100.00;98865.94;4993210;28;20398;-78
2024/01/28 05:51:32;;;;;;;19.40;11.10;;;;;;;-2.88;100.00;98855.47;4997020;28;20406;-79
2024/01/28 05:53:59;;;;;;;21.10;12.10;;;;;;;-2.85;100.00;98857.75;4999575;28;20871;-79
2024/01/28 05:56:25;;;;;;;20.88;11.63;;;;;;;-2.83;100.00;98860.22;5005292;28;20568;-78
2024/01/28 05:58:51;;;;;;;19.83;12.18;;;;;;;-2.82;100.00;98864.47;5003849;28;20934;-78
2024/01/28 06:01:17;;;;;;;25.33;15.02;;;;;;;-2.79;100.00;98857.28;5001133;28;20402;-79
2024/01/28 06:03:43;;;;;;;27.35;15.75;;;;;;;-2.77;100.00;98864.88;5000276;28;20409;-78
2024/01/28 06:06:11;;;;;;;28.63;16.02;;;;;;;-2.76;100.00;98869.13;5000619;28;20770;-78
2024/01/28 06:08:37;;;;;;;32.90;17.87;;;;;;;-2.74;100.00;98864.63;5000797;28;20466;-78
2024/01/28 06:11:03;;;;;;;34.38;19.17;;;;;;;-2.74;100.00;98864.63;5000948;28;20413;-78
2024/01/28 06:13:29;;;;;;;40.47;21.90;;;;;;;-2.71;100.00;98860.97;5001305;28;20477;-78
2024/01/28 06:15:56;;;;;;;47.95;24.95;;;;;;;-2.73;100.00;98861.09;5000915;28;20465;-78
2024/01/28 06:18:22;;;;;;;37.17;20.98;;;;;;;-2.72;100.00;98852.38;5000682;28;20406;-78
2024/01/28 06:20:48;;;;;;;39.33;21.35;;;;;;;-2.71;100.00;98854.03;5001290;28;20409;-78
2024/01/28 06:23:15;;;;;;;33.35;20.70;;;;;;;-2.69;100.00;98856.47;4999258;28;20418;-79
2024/01/28 06:25:49;;;;;;;35.80;20.58;;;;;;;-2.70;100.00;98860.00;5000403;28;20449;-79
2024/01/28 06:28:15;;;;;;;36.25;20.77;;;;;;;-2.70;100.00;98857.41;5000994;28;20407;-79
2024/01/28 06:30:41;;;;;;;33.88;20.50;;;;;;;-2.71;100.00;98859.22;5000505;28;20409;-78
2024/01/28 06:33:07;;;;;;;39.47;21.63;;;;;;;-2.69;100.00;98856.47;4998354;28;20398;-78
2024/01/28 06:35:33;;;;;;;40.67;21.02;;;;;;;-2.70;100.00;98857.41;4999621;28;20473;-78
2024/01/28 06:37:59;;;;;;;35.30;20.75;;;;;;;-2.70;100.00;98862.59;5000983;28;20398;-79
2024/01/28 06:40:27;;;;;;;36.05;20.00;;;;;;;-2.70;100.00;98858.22;4998667;28;20406;-79
2024/01/28 06:42:53;;;;;;;34.30;20.23;;;;;;;-2.71;100.00;98856.63;4993119;28;20455;-78
2024/01/28 06:45:19;;;;;;;37.63;19.75;;;;;;;-2.70;100.00;98860.00;5000726;28;20402;-78
2024/01/28 06:47:46;;;;;;;44.55;23.33;;;;;;;-2.69;100.00;98854.69;5005202;28;20414;-79
2024/01/28 06:50:12;;;;;;;35.28;20.88;;;;;;;-2.71;100.00;98851.44;5001357;28;20410;-79
2024/01/28 06:52:38;;;;;;;34.25;19.83;;;;;;;-2.71;100.00;98854.03;5006073;28;20434;-79
2024/01/28 06:55:05;;;;;;;32.05;18.65;;;;;;;-2.71;100.00;98848.84;5012071;28;20481;-79
2024/01/28 06:57:32;;;;;;;33.20;18.23;;;;;;;-2.72;100.00;98844.59;5013970;28;20402;-78
2024/01/28 06:59:59;;;;;;;29.83;17.67;;;;;;;-2.72;100.00;98851.56;5004602;28;20422;-79
2024/01/28 07:02:25;;;;;;;31.77;18.05;;;;;;;-2.72;100.00;98846.38;5002635;28;20461;-79
2024/01/28 07:04:51;;;;;;;31.45;17.77;;;;;;;-2.75;100.00;98847.44;5001865;28;20403;-78
2024/01/28 07:07:18;;;;;;;28.77;16.73;;;;;;;-2.75;100.00;98863.00;5000905;28;20430;-78
2024/01/28 07:09:44;;;;;;;32.88;18.58;;;;;;;-2.74;100.00;98867.22;5001529;28;20407;-78
2024/01/28 07:12:10;;;;;;;33.40;19.17;;;;;;;-2.74;100.00;98865.47;5000841;28;20399;-79
2024/01/28 07:14:38;;;;;;;34.05;19.00;;;;;;;-2.75;100.00;98858.63;5000380;28;20494;-78
2024/01/28 07:17:04;;;;;;;41.58;21.25;;;;;;;-2.74;100.00;98869.81;5000663;28;20406;-79
2024/01/28 07:19:30;;;;;;;37.30;21.20;;;;;;;-2.73;100.00;98861.09;5001208;28;20407;-78
2024/01/28 07:21:58;;;;;;;45.28;24.08;;;;;;;-2.70;100.00;98862.59;5001274;28;20842;-78
2024/01/28 07:24:24;;;;;;;44.15;23.23;;;;;;;-2.70;100.00;98870.38;5001551;28;20437;-79
2024/01/28 07:26:50;;;;;;;39.17;21.75;;;;;;;-2.68;100.00;98863.28;5002458;28;20399;-78
2024/01/28 07:29:17;;;;;;;35.47;20.88;;;;;;;-2.67;100.00;98862.34;5003370;28;20399;-79
2024/01/28 07:31:44;;;;;;;33.38;18.75;;;;;;;-2.65;100.00;98868.22;5003672;28;20406;-78
2024/01/28 07:34:10;;;;;;;32.38;18.27;;;;;;;-2.65;100.00;98860.44;4995257;28;20399;-78
2024/01/28 07:36:36;;;;;;;32.10;18.63;;;;;;;-2.65;100.00;98863.88;4998498;28;20592;-76
2024/01/28 07:39:04;;;;;;;31.95;18.00;;;;;;;-2.62;100.00;98863.59;4992357;28;20403;-76
2024/01/28 07:41:34;;;;;;;29.97;17.60;;;;;;;-2.61;100.00;98860.03;4995530;28;20430;-78
2024/01/28 07:44:00;;;;;;;31.23;17.30;;;;;;;-2.58;100.00;98862.38;4996383;28;20457;-77
2024/01/28 07:46:26;;;;;;;30.15;17.08;;;;;;;-2.55;100.00;98867.28;4993828;28;20406;-78
2024/01/28 07:48:54;;;;;;;26.10;15.95;;;;;;;-2.54;100.00;98863.75;5000033;28;20433;-78
2024/01/28 07:51:20;;;;;;;30.88;16.77;;;;;;;-2.51;100.00;98858.31;5000624;28;20438;-78
2024/01/28 07:53:46;;;;;;;28.17;16.15;;;;;;;-2.48;100.00;98855.44;4999822;28;20414;-78
2024/01/28 07:56:12;;;;;;;28.17;16.35;;;;;;;-2.42;100.00;98851.50;4997070;28;20430;-77
2024/01/28 07:58:38;;;;;;;28.15;15.40;;;;;;;-2.40;100.00;98853.00;4998189;28;20426;-78
2024/01/28 08:01:05;;;;;;;24.83;14.57;;;;;;;-2.35;100.00;98850.03;4997633;28;20414;-79
2024/01/28 08:03:31;;;;;;;29.20;15.65;;;;;;;-2.29;100.00;98853.84;4999403;28;20402;-79
2024/01/28 08:05:59;;;;;;;24.52;14.68;;;;;;;-2.25;100.00;98850.03;4997896;28;20406;-78
2024/01/28 08:08:25;;;;;;;25.67;15.40;;;;;;;-2.22;100.00;98848.00;4999124;28;20922;-77
2024/01/28 08:10:51;;;;;;;35.90;18.98;;;;;;;-2.18;100.00;98844.16;5000807;28;20409;-79
2024/01/28 08:13:19;;;;;;;37.40;20.45;;;;;;;-2.13;100.00;98839.41;5002079;28;20402;-79
2024/01/28 08:15:45;;;;;;;34.88;19.33;;;;;;;-2.07;100.00;98844.03;5002118;28;20414;-77
2024/01/28 08:18:12;;;;;;;39.50;20.45;;;;;;;-2.02;100.00;98844.44;5003170;28;20403;-78
2024/01/28 08:20:38;;;;;;;36.33;20.15;;;;;;;-1.96;100.00;98843.13;4999378;28;20470;-78
2024/01/28 08:23:06;;;;;;;36.63;20.38;;;;;;;-1.90;100.00;98845.16;5000715;28;20403;-78
2024/01/28 08:25:32;;;;;;;36.80;20.83;;;;;;;-1.83;100.00;98845.44;4998417;28;20453;-78
2024/01/28 08:27:58;;;;;;;41.50;22.23;;;;;;;-1.77;100.00;98839.69;5001176;28;20780;-79
2024/01/28 08:30:24;;;;;;;40.58;22.92;;;;;;;-1.65;100.00;98833.38;4999050;28;20895;-78
2024/01/28 08:32:50;;;;;;;43.03;23.05;;;;;;;-1.57;100.00;98836.91;4992206;28;20880;-81
2024/01/28 08:35:18;;;;;;;39.97;23.45;;;;;;;-1.50;100.00;98844.19;5000990;28;20429;-83
2024/01/28 08:37:44;;;;;;;55.63;27.95;;;;;;;-1.47;100.00;98841.28;4998712;28;20880;-81
2024/01/28 08:40:11;;;;;;;53.88;27.48;;;;;;;-1.44;100.00;98839.25;4997903;28;20402;-82
2024/01/28 08:42:38;;;;;;;54.28;29.23;;;;;;;-1.41;100.00;98838.94;5000858;28;20406;-81
2024/01/28 08:45:05;;;;;;;56.65;29.08;;;;;;;-1.39;100.00;98841.41;5000374;28;20402;-81
2024/01/28 08:47:31;;;;;;;50.13;27.30;;;;;;;-1.37;100.00;98844.69;5000251;28;20461;-84
2024/01/28 08:49:57;;;;;;;46.30;24.83;;;;;;;-1.33;100.00;98840.84;4998373;28;20469;-83
2024/01/28 08:52:24;;;;;;;46.50;25.48;;;;;;;-1.30;100.00;98838.81;4998149;28;20399;-82
2024/01/28 08:54:50;;;;;;;50.22;26.48;;;;;;;-1.25;100.00;98834.00;4980683;28;20406;-84
2024/01/28 08:57:18;;;;;;;47.13;25.15;;;;;;;-1.20;100.00;98828.38;4996691;28;20476;-82
2024/01/28 08:59:44;;;;;;;45.17;24.95;;;;;;;-1.14;100.00;98832.19;4997582;28;20413;-83
2024/01/28 09:02:10;;;;;;;50.67;25.85;;;;;;;-1.09;100.00;98836.00;4999922;28;20501;-82
2024/01/28 09:04:37;;;;;;;67.50;33.30;;;;;;;-1.04;100.00;98838.16;4998848;28;20904;-82
2024/01/28 09:07:03;;;;;;;71.97;35.28;;;;;;;-0.98;100.00;98848.84;5001192;28;20414;-80
2024/01/28 09:09:29;;;;;;;65.95;31.40;;;;;;;-0.93;100.00;98848.41;5003245;28;20399;-80
2024/01/28 09:11:55;;;;;;;51.08;27.02;;;;;;;-0.75;100.00;98843.28;5003328;28;20888;-80
2024/01/28 09:14:23;;;;;;;51.63;26.50;;;;;;;-0.33;100.00;98846.19;5002386;28;20402;-81
2024/01/28 09:16:49;;;;;;;65.30;31.42;;;;;;;0.13;100.00;98847.78;5001206;28;20934;-82
2024/01/28 09:19:15;;;;;;;54.42;27.55;;;;;;;0.34;100.00;98850.91;5000464;28;20426;-81
2024/01/28 09:21:41;;;;;;;44.00;23.63;;;;;;;0.52;100.00;98851.72;5002788;28;20410;-81
2024/01/28 09:24:07;;;;;;;33.25;20.75;;;;;;;1.00;100.00;98845.16;5002541;28;20477;-81
2024/01/28 09:26:33;;;;;;;1244.90;85.55;;;;;;;1.75;100.00;98846.13;5001517;28;20414;-80
2024/01/28 09:29:00;;;;;;;855.28;63.88;;;;;;;2.63;100.00;98849.84;4999426;28;20441;-82
2024/01/28 09:31:28;;;;;;;21.15;11.30;;;;;;;3.48;100.00;98845.69;5004244;28;20395;-82
2024/01/28 09:33:55;;;;;;;15.20;8.75;;;;;;;4.27;100.00;98855.91;5011804;28;20414;-80
2024/01/28 09:36:21;;;;;;;16.33;8.05;;;;;;;5.03;100.00;98854.09;5004790;28;20453;-81
2024/01/28 09:38:47;;;;;;;16.00;7.13;;;;;;;5.75;100.00;98846.38;5003651;28;20457;-81
2024/01/28 09:41:25;;;;;;;7.05;5.07;;;;;;;6.47;100.00;98849.78;5003779;28;20434;-82
2024/01/28 09:43:51;;;;;;;6.82;4.60;;;;;;;7.23;100.00;98857.84;5015365;28;20440;-85
2024/01/28 09:46:18;;;;;;;4.68;3.58;;;;;;;7.86;100.00;98854.09;5023496;28;20405;-81
2024/01/28 09:48:47;;;;;;;4.40;3.50;;;;;;;8.35;100.00;98858.31;5021618;28;20416;-83
2024/01/28 09:51:15;;;;;;;5.07;3.92;;;;;;;8.92;100.00;98855.09;5021806;28;20435;-81
2024/01/28 09:53:42;;;;;;;4.32;3.40;;;;;;;9.47;100.00;98848.50;5018736;28;20396;-84
2024/01/28 09:56:13;;;;;;;4.22;3.20;;;;;;;9.99;100.00;98850.16;5000753;28;20419;-83
2024/01/28 09:58:41;;;;;;;5.95;4.15;;;;;;;10.46;100.00;98848.84;5000382;28;20413;-82
2024/01/28 10:01:09;;;;;;;5.65;3.63;;;;;;;10.96;100.00;98848.91;4999124;28;20959;-81
2024/01/28 10:03:36;;;;;;;4.15;3.10;;;;;;;11.42;100.00;98853.75;4995273;28;20438;-81
2024/01/28 10:06:04;;;;;;;4.22;2.95;;;;;;;11.80;100.00;98847.44;4997606;28;20410;-81
2024/01/28 10:08:31;;;;;;;5.13;3.38;;;;;;;12.09;100.00;98845.84;5001092;28;20840;-83
2024/01/28 10:10:58;;;;;;;4.60;3.47;;;;;;;12.27;100.00;98828.00;4999126;28;20410;-82
2024/01/28 10:13:26;;;;;;;4.37;3.20;;;;;;;12.33;100.00;98816.47;4999425;28;20509;-81
2024/01/28 10:15:56;;;;;;;4.90;3.45;;;;;;;12.39;100.00;98812.91;4997292;28;20426;-83
2024/01/28 10:18:23;;;;;;;4.95;3.40;;;;;;;12.45;100.00;98811.19;4998757;28;20445;-80
2024/01/28 10:20:49;;;;;;;4.23;3.30;;;;;;;12.56;100.00;98806.94;4995569;28;20430;-81
2024/01/28 10:23:17;;;;;;;6.28;4.65;;;;;;;12.70;100.00;98803.03;4998592;28;20741;-80
2024/01/28 10:25:44;;;;;;;4.50;3.67;;;;;;;12.81;100.00;98796.91;4998038;28;20422;-81
2024/01/28 10:28:10;;;;;;;4.18;3.28;;;;;;;12.84;100.00;98796.47;4996686;28;20406;-81
2024/01/28 10:30:36;;;;;;;8.43;3.70;;;;;;;12.92;100.00;98790.00;4998664;28;20403;-81
2024/01/28 10:33:02;;;;;;;4.20;3.40;;;;;;;13.13;100.00;98800.06;4999085;28;20408;-80
2024/01/28 10:35:28;;;;;;;4.78;3.63;;;;;;;13.34;100.00;98791.47;4999711;28;20432;-81
2024/01/28 10:37:59;;;;;;;4.53;3.40;;;;;;;13.59;100.00;98791.19;5000373;28;20489;-80
2024/01/28 10:40:34;;;;;;;5.43;3.25;;;;;;;13.89;100.00;98785.66;5000048;28;20895;-82
2024/01/28 10:43:02;;;;;;;3.17;2.57;;;;;;;14.23;100.00;98770.53;5004739;28;20485;-83
2024/01/28 10:45:29;;;;;;;4.45;2.55;;;;;;;14.28;100.00;98781.31;5000820;28;20406;-81
2024/01/28 10:47:59;;;;;;;2.08;1.88;;;;;;;14.60;100.00;98776.25;4999533;28;20515;-82
2024/01/28 10:50:31;;;;;;;2.10;1.80;;;;;;;14.77;100.00;98777.03;4999683;28;20471;-83
2024/01/28 10:52:58;;;;;;;2.65;1.90;;;;;;;14.88;100.00;98781.50;4999969;28;20879;-81
2024/01/28 10:55:28;;;;;;;2.33;1.88;;;;;;;15.09;100.00;98778.06;4999163;28;20418;-83
2024/01/28 10:57:56;;;;;;;2.00;1.70;;;;;;;15.25;100.00;98767.59;5000188;28;20398;-83
2024/01/28 11:00:22;;;;;;;2.60;2.08;;;;;;;15.33;100.00;98767.97;5002657;28;20399;-83
2024/01/28 11:02:50;;;;;;;1.90;1.40;;;;;;;15.47;100.00;98768.41;5002938;28;20399;-83
2024/01/28 11:05:16;;;;;;;2.00;1.50;;;;;;;15.64;100.00;98763.81;5003601;28;20394;-84
2024/01/28 11:07:43;;;;;;;2.83;2.05;;;;;;;15.42;100.00;98763.00;5000683;28;20411;-83
2024/01/28 11:10:10;;;;;;;2.83;1.90;;;;;;;15.30;100.00;98757.78;5004186;28;20398;-83